createdAt,value
2022-10-01T00:00:31.073Z,13.20
2022-10-01T00:01:31.525Z,13.19
2022-10-01T00:02:31.100Z,13.19
2022-10-01T00:03:31.026Z,13.15
2022-10-01T00:04:31.022Z,13.14
2022-10-01T00:05:31.021Z,13.15
2022-10-01T00:06:30.969Z,13.12
2022-10-01T00:07:30.965Z,13.10
2022-10-01T00:08:30.972Z,13.05
2022-10-01T00:09:30.936Z,12.97
2022-10-01T00:10:30.934Z,12.96
2022-10-01T00:11:31.209Z,12.85
2022-10-01T00:12:30.879Z,12.75
2022-10-01T00:13:30.880Z,12.64
2022-10-01T00:14:30.884Z,12.53
2022-10-01T00:15:30.859Z,12.42
2022-10-01T00:16:30.873Z,12.35
2022-10-01T00:17:30.829Z,12.24
2022-10-01T00:18:30.832Z,12.17
2022-10-01T00:19:30.813Z,12.09
2022-10-01T00:20:30.793Z,12.02
2022-10-01T00:21:30.896Z,11.94
2022-10-01T00:22:30.766Z,11.83
2022-10-01T00:23:30.761Z,11.78
2022-10-01T00:24:30.712Z,11.70
2022-10-01T00:25:30.737Z,11.65
2022-10-01T00:26:30.706Z,11.60
2022-10-01T00:27:30.681Z,11.55
2022-10-01T00:28:30.717Z,11.52
2022-10-01T00:29:30.657Z,11.44
2022-10-01T00:30:30.647Z,11.44
2022-10-01T00:31:30.736Z,11.42
2022-10-01T00:32:30.606Z,11.36
2022-10-01T00:33:30.593Z,11.35
2022-10-01T00:34:30.597Z,11.35
2022-10-01T00:35:30.567Z,11.33
2022-10-01T00:36:30.569Z,11.29
2022-10-01T00:37:30.539Z,11.29
2022-10-01T00:38:30.522Z,11.32
2022-10-01T00:39:30.518Z,11.29
2022-10-01T00:40:30.481Z,11.28
2022-10-01T00:41:30.595Z,11.29
2022-10-01T00:42:30.506Z,11.27
2022-10-01T00:43:30.458Z,11.24
2022-10-01T00:44:30.464Z,11.25
2022-10-01T00:45:30.498Z,11.24
2022-10-01T00:46:30.438Z,11.22
2022-10-01T00:47:30.411Z,11.19
2022-10-01T00:48:40.081Z,11.17
2022-10-01T00:49:38.907Z,11.15
2022-10-01T00:50:30.335Z,11.14
2022-10-01T00:51:37.872Z,11.15
2022-10-01T00:52:30.318Z,11.18
2022-10-01T00:53:30.304Z,11.18
2022-10-01T00:54:30.308Z,11.17
2022-10-01T00:55:30.291Z,11.18
2022-10-01T00:56:30.292Z,11.11
2022-10-01T00:57:30.253Z,11.10
2022-10-01T00:58:30.240Z,11.09
2022-10-01T00:59:30.225Z,11.10
2022-10-01T01:00:30.263Z,11.06
2022-10-01T01:01:30.290Z,11.03
2022-10-01T01:02:30.202Z,11.02
2022-10-01T01:03:30.183Z,11.03
2022-10-01T01:04:30.167Z,11.04
2022-10-01T01:05:30.140Z,11.00
2022-10-01T01:06:30.158Z,10.97
2022-10-01T01:07:30.119Z,10.94
2022-10-01T01:08:30.115Z,10.92
2022-10-01T01:09:30.092Z,10.94
2022-10-01T01:10:30.074Z,10.92
2022-10-01T01:11:30.106Z,10.92
2022-10-01T01:12:30.095Z,10.91
2022-10-01T01:13:30.042Z,10.92
2022-10-01T01:14:30.022Z,10.92
2022-10-01T01:15:30.066Z,10.92
2022-10-01T01:16:30.022Z,10.96
2022-10-01T01:17:29.978Z,10.94
2022-10-01T01:18:29.979Z,10.94
2022-10-01T01:19:29.956Z,10.96
2022-10-01T01:20:29.940Z,10.92
2022-10-01T01:21:29.938Z,10.91
2022-10-01T01:22:29.928Z,10.91
2022-10-01T01:23:29.922Z,10.89
2022-10-01T01:24:36.037Z,10.88
2022-10-01T01:25:29.872Z,10.91
2022-10-01T01:26:29.869Z,10.91
2022-10-01T01:27:29.859Z,10.96
2022-10-01T01:28:29.884Z,10.92
2022-10-01T01:29:29.814Z,10.97
2022-10-01T01:30:29.796Z,10.97
2022-10-01T01:31:29.820Z,10.97
2022-10-01T01:32:29.773Z,10.97
2022-10-01T01:33:29.767Z,10.99
2022-10-01T01:34:29.777Z,10.96
2022-10-01T01:35:29.729Z,10.99
2022-10-01T01:36:29.728Z,10.94
2022-10-01T01:37:29.700Z,10.91
2022-10-01T01:38:29.697Z,10.96
2022-10-01T01:39:29.679Z,10.94
2022-10-01T01:40:29.734Z,10.92
2022-10-01T01:41:29.662Z,10.89
2022-10-01T01:42:29.633Z,10.88
2022-10-01T01:43:29.632Z,10.88
2022-10-01T01:44:29.611Z,10.88
2022-10-01T01:45:29.697Z,10.92
2022-10-01T01:46:29.643Z,10.89
2022-10-01T01:47:29.589Z,10.89
2022-10-01T01:48:29.575Z,10.89
2022-10-01T01:49:29.542Z,10.89
2022-10-01T01:50:29.530Z,10.91
2022-10-01T01:51:29.539Z,10.89
2022-10-01T01:52:29.520Z,10.88
2022-10-01T01:53:29.487Z,10.88
2022-10-01T01:54:29.477Z,10.86
2022-10-01T01:55:29.456Z,10.88
2022-10-01T01:56:29.443Z,10.86
2022-10-01T01:57:29.437Z,10.88
2022-10-01T01:58:29.424Z,10.88
2022-10-01T01:59:29.405Z,10.88
2022-10-01T02:00:29.383Z,10.86
2022-10-01T02:01:29.395Z,10.86
2022-10-01T02:02:29.447Z,10.86
2022-10-01T02:03:29.357Z,10.85
2022-10-01T02:04:29.331Z,10.86
2022-10-01T02:05:29.336Z,10.86
2022-10-01T02:07:22.484Z,10.88
2022-10-01T02:08:22.443Z,10.86
2022-10-01T02:09:22.403Z,10.85
2022-10-01T02:10:22.385Z,10.85
2022-10-01T02:11:22.361Z,10.84
2022-10-01T02:12:22.352Z,10.85
2022-10-01T02:13:22.321Z,10.86
2022-10-01T02:14:22.335Z,10.82
2022-10-01T02:15:22.314Z,10.81
2022-10-01T02:16:22.361Z,10.84
2022-10-01T02:17:22.296Z,10.82
2022-10-01T02:18:22.268Z,10.82
2022-10-01T02:19:22.258Z,10.81
2022-10-01T02:20:22.258Z,10.81
2022-10-01T02:21:22.210Z,10.81
2022-10-01T02:22:22.198Z,10.82
2022-10-01T02:23:22.190Z,10.81
2022-10-01T02:24:22.191Z,10.78
2022-10-01T02:25:22.198Z,10.76
2022-10-01T02:26:22.168Z,10.78
2022-10-01T02:27:22.139Z,10.78
2022-10-01T02:28:22.198Z,10.79
2022-10-01T02:29:22.112Z,10.78
2022-10-01T02:30:22.127Z,10.76
2022-10-01T02:31:22.185Z,10.78
2022-10-01T02:32:22.081Z,10.78
2022-10-01T02:33:22.058Z,10.76
2022-10-01T02:34:22.117Z,10.79
2022-10-01T02:35:22.029Z,10.79
2022-10-01T02:36:22.054Z,10.78
2022-10-01T02:37:21.992Z,10.78
2022-10-01T02:38:21.999Z,10.78
2022-10-01T02:39:21.960Z,10.74
2022-10-01T02:40:21.971Z,10.76
2022-10-01T02:41:21.951Z,10.79
2022-10-01T02:42:21.939Z,10.78
2022-10-01T02:43:21.915Z,10.76
2022-10-01T02:44:21.919Z,10.74
2022-10-01T02:45:21.892Z,10.73
2022-10-01T02:46:22.007Z,10.76
2022-10-01T02:47:21.869Z,10.73
2022-10-01T02:48:21.861Z,10.76
2022-10-01T02:49:21.834Z,10.74
2022-10-01T02:50:21.839Z,10.76
2022-10-01T02:51:21.834Z,10.76
2022-10-01T02:52:21.791Z,10.74
2022-10-01T02:53:21.794Z,10.74
2022-10-01T02:54:21.785Z,10.74
2022-10-01T02:55:21.745Z,10.71
2022-10-01T02:56:21.742Z,10.74
2022-10-01T02:57:21.722Z,10.74
2022-10-01T02:58:21.745Z,10.71
2022-10-01T02:59:21.705Z,10.73
2022-10-01T03:00:21.682Z,10.73
2022-10-01T03:01:21.689Z,10.71
2022-10-01T03:02:21.800Z,10.71
2022-10-01T03:03:21.636Z,10.73
2022-10-01T03:04:21.645Z,10.74
2022-10-01T03:05:21.601Z,10.71
2022-10-01T03:06:21.604Z,10.73
2022-10-01T03:07:21.586Z,10.74
2022-10-01T03:08:21.574Z,10.71
2022-10-01T03:09:21.576Z,10.74
2022-10-01T03:10:21.544Z,10.73
2022-10-01T03:11:21.532Z,10.74
2022-10-01T03:12:21.504Z,10.73
2022-10-01T03:13:21.508Z,10.73
2022-10-01T03:14:21.499Z,10.74
2022-10-01T03:15:21.488Z,10.74
2022-10-01T03:16:21.498Z,10.74
2022-10-01T03:17:21.454Z,10.76
2022-10-01T03:18:21.452Z,10.76
2022-10-01T03:19:21.432Z,10.74
2022-10-01T03:20:21.406Z,10.78
2022-10-01T03:21:21.399Z,10.78
2022-10-01T03:22:21.382Z,10.78
2022-10-01T03:23:21.365Z,10.78
2022-10-01T03:24:21.381Z,10.74
2022-10-01T03:25:21.341Z,10.79
2022-10-01T03:26:21.343Z,10.76
2022-10-01T03:27:21.308Z,10.76
2022-10-01T03:28:21.408Z,10.74
2022-10-01T03:29:21.290Z,10.76
2022-10-01T03:30:21.279Z,10.74
2022-10-01T03:31:21.331Z,10.76
2022-10-01T03:32:21.248Z,10.74
2022-10-01T03:33:21.233Z,10.76
2022-10-01T03:34:21.223Z,10.74
2022-10-01T03:35:21.193Z,10.78
2022-10-01T03:36:21.173Z,10.78
2022-10-01T03:37:21.202Z,10.74
2022-10-01T03:38:21.182Z,10.74
2022-10-01T03:39:21.134Z,10.73
2022-10-01T03:40:21.125Z,10.74
2022-10-01T03:41:21.109Z,10.73
2022-10-01T03:42:21.102Z,10.71
2022-10-01T03:43:21.076Z,10.71
2022-10-01T03:44:21.092Z,10.71
2022-10-01T03:45:21.038Z,10.71
2022-10-01T03:46:21.035Z,10.71
2022-10-01T03:47:21.045Z,10.73
2022-10-01T03:48:21.014Z,10.73
2022-10-01T03:49:21.003Z,10.74
2022-10-01T03:50:20.987Z,10.74
2022-10-01T03:51:20.997Z,10.76
2022-10-01T03:52:20.975Z,10.76
2022-10-01T03:53:20.967Z,10.79
2022-10-01T03:54:20.938Z,10.76
2022-10-01T03:55:20.907Z,10.78
2022-10-01T03:56:20.918Z,10.81
2022-10-01T03:57:20.932Z,10.81
2022-10-01T03:58:20.917Z,10.78
2022-10-01T03:59:20.879Z,10.81
2022-10-01T04:00:20.896Z,10.78
2022-10-01T04:01:20.876Z,10.79
2022-10-01T04:02:20.978Z,10.78
2022-10-01T04:03:20.816Z,10.79
2022-10-01T04:04:20.790Z,10.79
2022-10-01T04:05:20.791Z,10.79
2022-10-01T04:06:20.782Z,10.81
2022-10-01T04:07:20.778Z,10.82
2022-10-01T04:08:24.198Z,10.82
2022-10-01T04:09:20.728Z,10.85
2022-10-01T04:10:20.719Z,10.85
2022-10-01T04:11:20.715Z,10.86
2022-10-01T04:12:20.719Z,10.86
2022-10-01T04:13:20.705Z,10.89
2022-10-01T04:14:20.677Z,10.88
2022-10-01T04:15:20.643Z,10.89
2022-10-01T04:16:20.722Z,10.89
2022-10-01T04:17:20.610Z,10.89
2022-10-01T04:18:20.644Z,10.89
2022-10-01T04:19:20.607Z,10.92
2022-10-01T04:20:20.593Z,10.91
2022-10-01T04:21:20.584Z,10.89
2022-10-01T04:22:20.550Z,10.89
2022-10-01T04:23:20.535Z,10.92
2022-10-01T04:24:20.555Z,10.92
2022-10-01T04:25:20.505Z,10.92
2022-10-01T04:26:20.550Z,10.94
2022-10-01T04:27:20.475Z,10.94
2022-10-01T04:28:20.537Z,10.94
2022-10-01T04:29:20.489Z,10.92
2022-10-01T04:30:20.456Z,10.94
2022-10-01T04:31:20.492Z,10.96
2022-10-01T04:32:20.411Z,10.94
2022-10-01T04:33:20.423Z,10.94
2022-10-01T04:34:20.406Z,10.96
2022-10-01T04:35:20.377Z,10.97
2022-10-01T04:36:20.355Z,10.97
2022-10-01T04:37:20.354Z,10.97
2022-10-01T04:38:20.349Z,10.96
2022-10-01T04:39:20.337Z,10.96
2022-10-01T04:40:20.285Z,10.99
2022-10-01T04:41:20.299Z,10.97
2022-10-01T04:42:20.269Z,10.99
2022-10-01T04:43:20.285Z,11.02
2022-10-01T04:44:20.231Z,10.99
2022-10-01T04:45:20.226Z,11.00
2022-10-01T04:46:20.277Z,10.99
2022-10-01T04:47:20.225Z,10.97
2022-10-01T04:48:20.188Z,10.99
2022-10-01T04:49:20.218Z,11.00
2022-10-01T04:50:20.172Z,11.00
2022-10-01T04:51:20.156Z,11.03
2022-10-01T04:52:20.123Z,11.02
2022-10-01T04:53:20.139Z,11.02
2022-10-01T04:54:20.116Z,11.04
2022-10-01T04:55:20.092Z,11.03
2022-10-01T04:56:20.076Z,11.04
2022-10-01T04:57:20.069Z,11.03
2022-10-01T04:58:20.100Z,11.06
2022-10-01T04:59:20.024Z,11.06
2022-10-01T05:00:20.030Z,11.04
2022-10-01T05:01:20.080Z,11.07
2022-10-01T05:02:20.100Z,11.07
2022-10-01T05:03:19.973Z,11.09
2022-10-01T05:04:19.991Z,11.09
2022-10-01T05:05:19.993Z,11.07
2022-10-01T05:06:19.927Z,11.10
2022-10-01T05:07:19.948Z,11.11
2022-10-01T05:08:19.922Z,11.10
2022-10-01T05:09:19.912Z,11.09
2022-10-01T05:10:19.875Z,11.11
2022-10-01T05:11:19.886Z,11.14
2022-10-01T05:12:24.274Z,11.14
2022-10-01T05:13:19.861Z,11.11
2022-10-01T05:14:19.853Z,11.15
2022-10-01T05:15:19.828Z,11.11
2022-10-01T05:16:19.893Z,11.11
2022-10-01T05:17:19.812Z,11.17
2022-10-01T05:18:19.790Z,11.17
2022-10-01T05:19:19.761Z,11.18
2022-10-01T05:20:19.781Z,11.17
2022-10-01T05:21:19.735Z,11.17
2022-10-01T05:22:19.717Z,11.17
2022-10-01T05:23:19.717Z,11.18
2022-10-01T05:24:19.714Z,11.21
2022-10-01T05:25:19.694Z,11.19
2022-10-01T05:26:19.675Z,11.22
2022-10-01T05:27:19.683Z,11.22
2022-10-01T05:28:22.414Z,11.21
2022-10-01T05:29:19.609Z,11.22
2022-10-01T05:30:19.631Z,11.25
2022-10-01T05:31:19.696Z,11.28
2022-10-01T05:32:19.593Z,11.25
2022-10-01T05:33:19.564Z,11.29
2022-10-01T05:34:19.566Z,11.27
2022-10-01T05:35:19.546Z,11.28
2022-10-01T05:36:19.532Z,11.29
2022-10-01T05:37:19.513Z,11.33
2022-10-01T05:38:19.492Z,11.33
2022-10-01T05:39:19.512Z,11.33
2022-10-01T05:40:19.452Z,11.36
2022-10-01T05:41:19.450Z,11.35
2022-10-01T05:42:19.431Z,11.35
2022-10-01T05:43:19.438Z,11.35
2022-10-01T05:44:19.430Z,11.35
2022-10-01T05:45:19.405Z,11.35
2022-10-01T05:46:19.399Z,11.36
2022-10-01T05:47:19.388Z,11.39
2022-10-01T05:48:19.338Z,11.39
2022-10-01T05:49:19.330Z,11.40
2022-10-01T05:50:19.360Z,11.40
2022-10-01T05:51:19.394Z,11.40
2022-10-01T05:52:19.324Z,11.43
2022-10-01T05:53:19.320Z,11.44
2022-10-01T05:54:19.275Z,11.44
2022-10-01T05:55:19.263Z,11.47
2022-10-01T05:56:19.227Z,11.47
2022-10-01T05:57:19.273Z,11.47
2022-10-01T05:58:19.254Z,11.47
2022-10-01T05:59:19.246Z,11.47
2022-10-01T06:00:19.164Z,11.47
2022-10-01T06:01:19.214Z,11.49
2022-10-01T06:02:19.235Z,11.52
2022-10-01T06:03:19.205Z,11.52
2022-10-01T06:04:19.129Z,11.54
2022-10-01T06:05:19.149Z,11.57
2022-10-01T06:06:19.100Z,11.57
2022-10-01T06:07:19.074Z,11.57
2022-10-01T06:08:19.070Z,11.60
2022-10-01T06:09:19.103Z,11.58
2022-10-01T06:10:19.041Z,11.60
2022-10-01T06:11:19.057Z,11.60
2022-10-01T06:12:19.933Z,11.61
2022-10-01T06:13:19.019Z,11.65
2022-10-01T06:14:19.034Z,11.64
2022-10-01T06:15:19.022Z,11.65
2022-10-01T06:16:18.994Z,11.64
2022-10-01T06:17:18.986Z,11.69
2022-10-01T06:18:18.936Z,11.67
2022-10-01T06:19:18.947Z,11.69
2022-10-01T06:20:18.928Z,11.72
2022-10-01T06:21:18.909Z,11.72
2022-10-01T06:22:18.893Z,11.72
2022-10-01T06:23:18.924Z,11.72
2022-10-01T06:24:18.870Z,11.73
2022-10-01T06:25:18.864Z,11.75
2022-10-01T06:26:18.903Z,11.76
2022-10-01T06:27:18.838Z,11.76
2022-10-01T06:28:18.847Z,11.79
2022-10-01T06:29:18.793Z,11.78
2022-10-01T06:30:18.810Z,11.79
2022-10-01T06:31:18.832Z,11.80
2022-10-01T06:32:18.725Z,11.82
2022-10-01T06:33:18.752Z,11.82
2022-10-01T06:34:18.700Z,11.83
2022-10-01T06:35:18.694Z,11.85
2022-10-01T06:36:18.670Z,11.85
2022-10-01T06:37:18.696Z,11.86
2022-10-01T06:38:18.684Z,11.86
2022-10-01T06:39:18.651Z,11.86
2022-10-01T06:40:18.631Z,11.94
2022-10-01T06:41:18.623Z,11.91
2022-10-01T06:42:18.598Z,11.95
2022-10-01T06:43:18.610Z,11.96
2022-10-01T06:44:18.601Z,11.95
2022-10-01T06:45:18.564Z,11.94
2022-10-01T06:46:18.676Z,11.94
2022-10-01T06:47:18.536Z,11.98
2022-10-01T06:48:18.544Z,11.99
2022-10-01T06:49:18.540Z,11.99
2022-10-01T06:50:18.488Z,12.04
2022-10-01T06:51:18.490Z,12.05
2022-10-01T06:52:18.444Z,12.07
2022-10-01T06:53:18.458Z,12.10
2022-10-01T06:54:18.409Z,12.07
2022-10-01T06:55:18.417Z,12.09
2022-10-01T06:56:18.393Z,12.09
2022-10-01T06:57:18.421Z,12.10
2022-10-01T06:58:18.367Z,12.10
2022-10-01T06:59:18.363Z,12.12
2022-10-01T07:00:18.369Z,12.14
2022-10-01T07:01:18.402Z,12.16
2022-10-01T07:02:18.355Z,12.14
2022-10-01T07:03:18.292Z,12.19
2022-10-01T07:04:18.327Z,12.19
2022-10-01T07:05:18.312Z,12.17
2022-10-01T07:06:18.259Z,12.17
2022-10-01T07:07:18.279Z,12.19
2022-10-01T07:08:18.216Z,12.19
2022-10-01T07:09:18.219Z,12.20
2022-10-01T07:10:18.242Z,12.23
2022-10-01T07:11:18.175Z,12.24
2022-10-01T07:12:18.158Z,12.24
2022-10-01T07:13:18.180Z,12.27
2022-10-01T07:14:18.162Z,12.29
2022-10-01T07:15:18.133Z,12.31
2022-10-01T07:16:18.175Z,12.31
2022-10-01T07:17:18.141Z,12.32
2022-10-01T07:18:18.097Z,12.31
2022-10-01T07:19:18.048Z,12.31
2022-10-01T07:20:18.074Z,12.34
2022-10-01T07:21:18.066Z,12.32
2022-10-01T07:22:18.005Z,12.35
2022-10-01T07:23:18.039Z,12.37
2022-10-01T07:24:17.999Z,12.38
2022-10-01T07:25:18.010Z,12.39
2022-10-01T07:26:18.037Z,12.39
2022-10-01T07:27:17.959Z,12.42
2022-10-01T07:28:18.088Z,12.45
2022-10-01T07:29:17.935Z,12.42
2022-10-01T07:30:17.902Z,12.45
2022-10-01T07:31:17.940Z,12.50
2022-10-01T07:32:17.886Z,12.52
2022-10-01T07:33:17.892Z,12.52
2022-10-01T07:34:17.845Z,12.54
2022-10-01T07:35:17.845Z,12.56
2022-10-01T07:36:17.844Z,12.57
2022-10-01T07:37:17.783Z,12.59
2022-10-01T07:38:17.798Z,12.57
2022-10-01T07:39:17.804Z,12.62
2022-10-01T07:40:17.787Z,12.65
2022-10-01T07:41:17.728Z,12.68
2022-10-01T07:42:17.756Z,12.70
2022-10-01T07:43:17.750Z,12.70
2022-10-01T07:44:17.713Z,12.72
2022-10-01T07:45:17.674Z,12.74
2022-10-01T07:46:17.688Z,12.77
2022-10-01T07:47:17.828Z,12.78
2022-10-01T07:48:17.793Z,12.83
2022-10-01T07:49:17.652Z,12.83
2022-10-01T07:50:17.629Z,12.85
2022-10-01T07:51:17.588Z,12.86
2022-10-01T07:52:17.591Z,12.87
2022-10-01T07:53:17.674Z,12.89
2022-10-01T07:54:18.490Z,12.92
2022-10-01T07:55:17.578Z,12.90
2022-10-01T07:56:17.780Z,12.95
2022-10-01T07:57:18.202Z,13.01
2022-10-01T07:58:17.483Z,13.08
2022-10-01T07:59:17.506Z,13.11
2022-10-01T08:00:17.456Z,13.14
2022-10-01T08:01:17.473Z,13.20
2022-10-01T08:02:18.580Z,13.23
2022-10-01T08:03:17.416Z,13.23
2022-10-01T08:04:17.402Z,13.23
2022-10-01T08:05:17.644Z,13.28
2022-10-01T08:06:19.816Z,13.30
2022-10-01T08:07:17.605Z,13.33
2022-10-01T08:08:17.335Z,13.44
2022-10-01T08:09:17.465Z,13.45
2022-10-01T08:10:17.447Z,13.46
2022-10-01T08:11:17.330Z,13.46
2022-10-01T08:12:17.296Z,13.44
2022-10-01T08:13:17.317Z,13.49
2022-10-01T08:14:18.823Z,13.48
2022-10-01T08:15:17.299Z,13.48
2022-10-01T08:16:17.594Z,13.51
2022-10-01T08:17:17.264Z,13.52
2022-10-01T08:18:17.201Z,13.49
2022-10-01T08:19:17.216Z,13.49
2022-10-01T08:20:17.203Z,13.54
2022-10-01T08:21:17.175Z,13.57
2022-10-01T08:22:17.166Z,13.66
2022-10-01T08:23:17.178Z,13.73
2022-10-01T08:24:17.109Z,13.69
2022-10-01T08:25:17.104Z,13.70
2022-10-01T08:26:17.091Z,13.79
2022-10-01T08:27:17.086Z,13.88
2022-10-01T08:28:17.100Z,13.99
2022-10-01T08:29:17.244Z,14.03
2022-10-01T08:30:17.107Z,14.00
2022-10-01T08:31:17.076Z,14.07
2022-10-01T08:32:17.023Z,14.17
2022-10-01T08:33:17.017Z,14.27
2022-10-01T08:34:16.983Z,14.35
2022-10-01T08:35:16.986Z,14.33
2022-10-01T08:36:16.941Z,14.32
2022-10-01T08:37:16.960Z,14.21
2022-10-01T08:38:16.912Z,14.25
2022-10-01T08:39:16.947Z,14.28
2022-10-01T08:40:16.929Z,14.39
2022-10-01T08:41:21.289Z,14.52
2022-10-01T08:42:17.875Z,14.50
2022-10-01T08:43:16.958Z,14.50
2022-10-01T08:44:16.847Z,14.47
2022-10-01T08:45:16.836Z,14.45
2022-10-01T08:46:16.886Z,14.36
2022-10-01T08:47:16.798Z,14.35
2022-10-01T08:48:16.827Z,14.35
2022-10-01T08:49:16.782Z,14.27
2022-10-01T08:50:16.789Z,14.22
2022-10-01T08:51:16.757Z,14.24
2022-10-01T08:52:16.741Z,14.25
2022-10-01T08:53:16.725Z,14.29
2022-10-01T08:54:16.694Z,14.27
2022-10-01T08:55:16.693Z,14.28
2022-10-01T08:56:16.693Z,14.28
2022-10-01T08:57:16.692Z,14.28
2022-10-01T08:58:16.656Z,14.32
2022-10-01T08:59:16.630Z,14.29
2022-10-01T09:00:16.655Z,14.32
2022-10-01T09:01:16.638Z,14.25
2022-10-01T09:02:16.641Z,14.35
2022-10-01T09:03:16.592Z,14.39
2022-10-01T09:04:16.661Z,14.47
2022-10-01T09:05:24.108Z,14.58
2022-10-01T09:06:16.540Z,14.62
2022-10-01T09:07:16.517Z,14.69
2022-10-01T09:08:16.497Z,14.78
2022-10-01T09:09:16.487Z,14.86
2022-10-01T09:10:16.489Z,14.88
2022-10-01T09:11:16.476Z,14.86
2022-10-01T09:12:16.444Z,14.83
2022-10-01T09:13:16.440Z,14.84
2022-10-01T09:14:16.438Z,14.77
2022-10-01T09:15:16.402Z,14.70
2022-10-01T09:16:16.474Z,14.62
2022-10-01T09:17:16.425Z,14.60
2022-10-01T09:18:16.394Z,14.54
2022-10-01T09:19:16.360Z,14.46
2022-10-01T09:20:16.341Z,14.42
2022-10-01T09:21:16.323Z,14.33
2022-10-01T09:22:16.360Z,14.33
2022-10-01T09:23:16.345Z,14.36
2022-10-01T09:24:16.276Z,14.35
2022-10-01T09:25:16.273Z,14.35
2022-10-01T09:26:16.304Z,14.32
2022-10-01T09:27:16.281Z,14.28
2022-10-01T09:28:16.334Z,14.25
2022-10-01T09:29:16.253Z,14.27
2022-10-01T09:30:16.257Z,14.27
2022-10-01T09:31:16.255Z,14.29
2022-10-01T09:32:16.200Z,14.32
2022-10-01T09:33:16.192Z,14.35
2022-10-01T09:34:16.176Z,14.43
2022-10-01T09:35:16.140Z,14.52
2022-10-01T09:36:16.126Z,14.57
2022-10-01T09:37:16.116Z,14.54
2022-10-01T09:38:16.088Z,14.52
2022-10-01T09:39:16.117Z,14.58
2022-10-01T09:40:16.216Z,14.58
2022-10-01T09:41:16.052Z,14.55
2022-10-01T09:42:16.038Z,14.55
2022-10-01T09:43:16.020Z,14.47
2022-10-01T09:44:18.713Z,14.43
2022-10-01T09:45:16.007Z,14.39
2022-10-01T09:46:16.019Z,14.33
2022-10-01T09:47:15.972Z,14.32
2022-10-01T09:48:15.959Z,14.25
2022-10-01T09:49:15.929Z,14.25
2022-10-01T09:50:15.952Z,14.22
2022-10-01T09:51:15.950Z,14.22
2022-10-01T09:52:15.938Z,14.22
2022-10-01T09:53:15.930Z,14.20
2022-10-01T09:54:15.871Z,14.20
2022-10-01T09:55:15.863Z,14.21
2022-10-01T09:56:15.873Z,14.28
2022-10-01T09:57:15.840Z,14.29
2022-10-01T09:58:15.846Z,14.39
2022-10-01T09:59:15.829Z,14.43
2022-10-01T10:00:15.847Z,14.47
2022-10-01T10:01:15.784Z,14.51
2022-10-01T10:02:15.837Z,14.55
2022-10-01T10:03:15.810Z,14.57
2022-10-01T10:04:19.911Z,14.55
2022-10-01T10:05:15.755Z,14.60
2022-10-01T10:06:15.700Z,14.64
2022-10-01T10:07:15.705Z,14.69
2022-10-01T10:08:15.720Z,14.75
2022-10-01T10:09:15.677Z,14.78
2022-10-01T10:10:15.706Z,14.86
2022-10-01T10:11:15.640Z,14.91
2022-10-01T10:12:15.622Z,14.96
2022-10-01T10:13:15.613Z,15.07
2022-10-01T10:14:15.643Z,15.13
2022-10-01T10:15:15.594Z,15.21
2022-10-01T10:16:15.690Z,15.23
2022-10-01T10:17:15.561Z,15.20
2022-10-01T10:18:18.132Z,15.23
2022-10-01T10:19:15.554Z,15.25
2022-10-01T10:20:15.544Z,15.27
2022-10-01T10:21:15.514Z,15.23
2022-10-01T10:22:15.496Z,15.19
2022-10-01T10:23:15.477Z,15.16
2022-10-01T10:24:15.481Z,15.16
2022-10-01T10:25:15.482Z,15.16
2022-10-01T10:26:15.438Z,15.14
2022-10-01T10:27:15.430Z,15.16
2022-10-01T10:28:15.459Z,15.10
2022-10-01T10:29:15.447Z,15.11
2022-10-01T10:30:15.478Z,15.14
2022-10-01T10:31:15.498Z,15.16
2022-10-01T10:32:15.394Z,15.16
2022-10-01T10:33:15.357Z,15.20
2022-10-01T10:34:15.336Z,15.19
2022-10-01T10:35:15.317Z,15.20
2022-10-01T10:36:15.309Z,15.20
2022-10-01T10:37:15.334Z,15.13
2022-10-01T10:38:15.347Z,15.19
2022-10-01T10:39:15.276Z,15.27
2022-10-01T10:40:15.264Z,15.31
2022-10-01T10:41:15.240Z,15.44
2022-10-01T10:42:15.237Z,15.50
2022-10-01T10:43:15.234Z,15.54
2022-10-01T10:44:15.206Z,15.59
2022-10-01T10:45:15.198Z,15.49
2022-10-01T10:46:15.255Z,15.53
2022-10-01T10:47:15.154Z,15.53
2022-10-01T10:48:15.167Z,15.60
2022-10-01T10:49:15.185Z,15.62
2022-10-01T10:50:15.133Z,15.62
2022-10-01T10:51:15.107Z,15.69
2022-10-01T10:52:15.148Z,15.74
2022-10-01T10:53:15.070Z,15.78
2022-10-01T10:54:15.077Z,15.86
2022-10-01T10:55:15.065Z,15.86
2022-10-01T10:56:15.068Z,15.86
2022-10-01T10:57:15.042Z,15.97
2022-10-01T10:58:15.017Z,16.04
2022-10-01T10:59:15.010Z,16.07
2022-10-01T11:00:14.992Z,16.08
2022-10-01T11:01:15.026Z,16.09
2022-10-01T11:02:15.005Z,16.11
2022-10-01T11:03:14.998Z,16.14
2022-10-01T11:04:14.934Z,16.11
2022-10-01T11:05:14.922Z,16.08
2022-10-01T11:06:14.937Z,16.09
2022-10-01T11:07:14.885Z,16.11
2022-10-01T11:08:17.779Z,16.12
2022-10-01T11:09:14.885Z,16.15
2022-10-01T11:10:14.844Z,16.17
2022-10-01T11:11:14.824Z,16.15
2022-10-01T11:12:14.851Z,16.12
2022-10-01T11:13:14.822Z,16.15
2022-10-01T11:14:14.797Z,16.24
2022-10-01T11:15:14.794Z,16.28
2022-10-01T11:16:14.844Z,16.31
2022-10-01T11:17:14.747Z,16.39
2022-10-01T11:18:14.757Z,16.39
2022-10-01T11:19:14.709Z,16.42
2022-10-01T11:20:18.576Z,16.45
2022-10-01T11:21:15.677Z,16.41
2022-10-01T11:22:14.679Z,16.48
2022-10-01T11:23:14.697Z,16.53
2022-10-01T11:24:14.679Z,16.60
2022-10-01T11:25:14.647Z,16.56
2022-10-01T11:26:14.629Z,16.48
2022-10-01T11:27:14.616Z,16.52
2022-10-01T11:28:14.688Z,16.60
2022-10-01T11:29:14.599Z,16.67
2022-10-01T11:30:14.572Z,16.68
2022-10-01T11:31:14.649Z,16.70
2022-10-01T11:32:14.546Z,16.71
2022-10-01T11:33:14.536Z,16.83
2022-10-01T11:34:14.521Z,16.89
2022-10-01T11:35:14.543Z,16.97
2022-10-01T11:36:14.496Z,17.06
2022-10-01T11:37:14.476Z,17.12
2022-10-01T11:38:14.496Z,17.25
2022-10-01T11:39:14.479Z,17.36
2022-10-01T11:40:14.426Z,17.41
2022-10-01T11:41:14.457Z,17.41
2022-10-01T11:42:14.408Z,17.23
2022-10-01T11:43:14.406Z,17.08
2022-10-01T11:44:14.411Z,16.98
2022-10-01T11:45:14.373Z,16.93
2022-10-01T11:46:14.400Z,16.73
2022-10-01T11:47:14.393Z,16.66
2022-10-01T11:48:14.348Z,16.53
2022-10-01T11:49:14.348Z,16.39
2022-10-01T11:50:14.309Z,16.30
2022-10-01T11:51:14.300Z,16.21
2022-10-01T11:52:14.280Z,16.12
2022-10-01T11:53:14.271Z,16.05
2022-10-01T11:54:14.246Z,16.02
2022-10-01T11:55:14.223Z,16.04
2022-10-01T11:56:14.212Z,16.09
2022-10-01T11:57:14.202Z,16.14
2022-10-01T11:58:14.186Z,16.27
2022-10-01T11:59:14.194Z,16.30
2022-10-01T12:00:14.169Z,16.43
2022-10-01T12:01:14.153Z,16.46
2022-10-01T12:02:14.182Z,16.45
2022-10-01T12:03:14.126Z,16.39
2022-10-01T12:04:14.113Z,16.31
2022-10-01T12:05:14.180Z,16.30
2022-10-01T12:06:14.113Z,16.30
2022-10-01T12:07:14.055Z,16.30
2022-10-01T12:08:14.087Z,16.28
2022-10-01T12:09:14.044Z,16.30
2022-10-01T12:10:14.047Z,16.33
2022-10-01T12:11:14.015Z,16.43
2022-10-01T12:12:13.988Z,16.53
2022-10-01T12:13:13.977Z,16.66
2022-10-01T12:14:13.976Z,16.78
2022-10-01T12:15:13.961Z,16.89
2022-10-01T12:16:14.004Z,17.00
2022-10-01T12:17:13.933Z,17.08
2022-10-01T12:18:13.925Z,17.18
2022-10-01T12:19:13.901Z,17.34
2022-10-01T12:20:13.889Z,17.48
2022-10-01T12:21:13.883Z,17.54
2022-10-01T12:22:13.852Z,17.52
2022-10-01T12:23:13.841Z,17.54
2022-10-01T12:24:13.831Z,17.62
2022-10-01T12:25:13.815Z,17.70
2022-10-01T12:26:13.834Z,17.77
2022-10-01T12:27:13.794Z,17.86
2022-10-01T12:28:13.862Z,17.92
2022-10-01T12:29:13.752Z,17.87
2022-10-01T12:30:13.774Z,17.78
2022-10-01T12:31:13.802Z,17.70
2022-10-01T12:32:13.777Z,17.62
2022-10-01T12:33:13.718Z,17.63
2022-10-01T12:34:13.715Z,17.55
2022-10-01T12:35:13.704Z,17.48
2022-10-01T12:36:13.688Z,17.43
2022-10-01T12:37:13.665Z,17.46
2022-10-01T12:38:13.675Z,17.49
2022-10-01T12:39:13.626Z,17.44
2022-10-01T12:40:13.614Z,17.40
2022-10-01T12:41:13.619Z,17.38
2022-10-01T12:42:13.594Z,17.38
2022-10-01T12:43:13.600Z,17.40
2022-10-01T12:44:13.586Z,17.52
2022-10-01T12:45:13.559Z,17.56
2022-10-01T12:46:13.587Z,17.63
2022-10-01T12:47:13.505Z,17.66
2022-10-01T12:48:13.509Z,17.66
2022-10-01T12:49:13.520Z,17.71
2022-10-01T12:50:13.499Z,17.78
2022-10-01T12:51:13.499Z,17.81
2022-10-01T12:52:13.440Z,17.74
2022-10-01T12:53:13.452Z,17.71